Time;durP1;ratioP1;P1;durP2;ratioP2;P2;SDS_P1;SDS_P2;PMS_P1;PMS_P2;Temp;Humidity;BMP_temperature;BMP_pressure;BME280_temperature;BME280_humidity;BME280_pressure;Samples;Min_cycle;Max_cycle;Signal;HPM_P1;HPM_P2
2021/11/05 00:50:31;;;;;;;5.95;3.25;;;;;;;;;;4992871;28;20050;-88
2021/11/05 00:52:57;;;;;;;5.68;2.95;;;;;;;;;;4977391;28;20036;-88
2021/11/05 00:55:24;;;;;;;5.72;3.13;;;;;;;;;;4976414;28;20022;-88
2021/11/05 00:57:50;;;;;;;6.25;3.20;;;;;;;;;;4976986;28;20077;-88
2021/11/05 01:00:17;;;;;;;6.03;3.22;;;;;;;;;;4976843;28;20025;-88
2021/11/05 01:02:44;;;;;;;5.43;2.97;;;;;;;;;;4977076;28;20030;-88
2021/11/05 01:05:11;;;;;;;5.75;3.53;;;;;;;;;;4977142;28;20057;-88
2021/11/05 01:07:37;;;;;;;6.25;3.28;;;;;;;;;;4994769;28;20034;-88
2021/11/05 01:10:04;;;;;;;7.70;3.85;;;;;;;;;;4976696;28;20023;-88
2021/11/05 01:12:30;;;;;;;5.90;3.50;;;;;;;;;;4976986;28;20118;-88
2021/11/05 01:14:56;;;;;;;6.15;3.50;;;;;;;;;;4994384;28;20061;-88
2021/11/05 01:17:22;;;;;;;5.65;3.17;;;;;;;;;;4976918;28;20030;-88
2021/11/05 01:19:48;;;;;;;5.97;3.33;;;;;;;;;;4976591;28;20022;-88
2021/11/05 01:22:14;;;;;;;5.90;3.05;;;;;;;;;;4993806;28;20579;-89
2021/11/05 01:24:40;;;;;;;6.32;3.58;;;;;;;;;;4994649;28;20117;-88
2021/11/05 01:27:06;;;;;;;5.45;2.83;;;;;;;;;;4976914;28;20027;-88
2021/11/05 01:29:32;;;;;;;5.43;3.05;;;;;;;;;;4994278;28;20035;-88
2021/11/05 01:31:59;;;;;;;6.28;3.67;;;;;;;;;;4976396;28;20022;-88
2021/11/05 01:34:25;;;;;;;6.10;3.65;;;;;;;;;;4976677;28;20125;-87
2021/11/05 01:36:51;;;;;;;5.68;3.40;;;;;;;;;;4976687;28;20030;-87
2021/11/05 01:39:17;;;;;;;7.25;3.42;;;;;;;;;;4993794;28;20476;-87
2021/11/05 01:41:44;;;;;;;6.13;3.58;;;;;;;;;;4993695;28;20062;-87
2021/11/05 01:44:10;;;;;;;6.95;3.60;;;;;;;;;;4976140;28;20037;-88
2021/11/05 01:46:41;;;;;;;5.82;3.35;;;;;;;;;;4975888;28;20509;-88
2021/11/05 01:49:11;;;;;;;6.47;3.85;;;;;;;;;;4974432;28;20463;-87
2021/11/05 05:18:22;;;;;;;8.57;5.25;;;;;;;;;;4992532;28;20061;-89
2021/11/05 05:20:49;;;;;;;7.80;4.82;;;;;;;;;;4977045;28;20038;-89
2021/11/05 05:23:15;;;;;;;8.27;5.47;;;;;;;;;;4975374;28;20145;-88
2021/11/05 05:25:43;;;;;;;10.63;6.50;;;;;;;;;;4977146;28;20538;-89
2021/11/05 05:28:09;;;;;;;9.02;5.50;;;;;;;;;;4976625;28;20057;-89
2021/11/05 05:30:35;;;;;;;9.85;6.03;;;;;;;;;;4977017;28;20034;-89
2021/11/05 05:33:01;;;;;;;9.27;5.70;;;;;;;;;;4977080;28;20172;-87
2021/11/05 05:35:27;;;;;;;9.82;6.32;;;;;;;;;;4977385;28;20042;-88
2021/11/05 05:37:54;;;;;;;12.20;6.57;;;;;;;;;;4976589;28;20065;-88
2021/11/05 05:40:24;;;;;;;8.90;5.35;;;;;;;;;;4966176;28;20121;-88
2021/11/05 05:42:50;;;;;;;11.82;6.95;;;;;;;;;;4959677;28;20027;-88
2021/11/05 05:45:16;;;;;;;16.85;9.38;;;;;;;;;;4976860;28;20022;-88
2021/11/05 05:47:44;;;;;;;11.68;6.75;;;;;;;;;;4976797;28;20054;-88
2021/11/05 05:50:12;;;;;;;10.35;6.30;;;;;;;;;;4968783;28;20077;-88
2021/11/05 05:52:38;;;;;;;10.00;6.75;;;;;;;;;;4977079;28;20045;-87
2021/11/05 05:55:05;;;;;;;14.07;7.57;;;;;;;;;;4968849;28;20409;-87
2021/11/05 05:57:31;;;;;;;13.88;8.07;;;;;;;;;;4989843;28;20030;-88
2021/11/05 05:59:58;;;;;;;15.85;7.35;;;;;;;;;;4978631;28;20026;-88
2021/11/05 06:02:27;;;;;;;13.82;7.90;;;;;;;;;;4978071;28;20396;-87
2021/11/05 06:04:53;;;;;;;21.98;11.93;;;;;;;;;;4959108;28;20049;-88
2021/11/05 06:07:19;;;;;;;16.98;8.50;;;;;;;;;;4968077;28;20116;-88
2021/11/05 06:09:45;;;;;;;13.20;8.52;;;;;;;;;;4977400;28;20069;-88
2021/11/05 06:12:11;;;;;;;14.73;8.60;;;;;;;;;;4976276;28;20026;-87
2021/11/05 06:14:37;;;;;;;12.70;7.57;;;;;;;;;;4977284;28;20053;-87
2021/11/05 06:17:03;;;;;;;13.88;7.50;;;;;;;;;;4978447;28;20030;-88
2021/11/05 06:19:30;;;;;;;12.68;7.90;;;;;;;;;;4978211;28;20484;-88
2021/11/05 06:21:56;;;;;;;16.65;8.18;;;;;;;;;;4974491;28;20038;-87
2021/11/05 06:24:22;;;;;;;13.32;7.25;;;;;;;;;;4978547;28;20022;-87
2021/11/05 06:26:49;;;;;;;11.90;7.28;;;;;;;;;;4994424;28;20031;-88
2021/11/05 06:29:15;;;;;;;11.18;7.28;;;;;;;;;;4975911;28;20030;-87
2021/11/05 06:31:41;;;;;;;12.52;7.35;;;;;;;;;;4976822;28;20022;-88
2021/11/05 06:34:07;;;;;;;9.85;7.57;;;;;;;;;;4977553;28;20476;-88
2021/11/05 06:36:34;;;;;;;11.80;8.52;;;;;;;;;;4975885;28;20465;-89
2021/11/05 06:39:01;;;;;;;17.23;12.30;;;;;;;;;;4976219;28;20033;-92
2021/11/05 06:41:27;;;;;;;11.63;8.18;;;;;;;;;;4976948;28;20042;-91
2021/11/05 06:43:54;;;;;;;13.82;8.05;;;;;;;;;;4994203;28;20105;-90
2021/11/05 06:46:20;;;;;;;13.55;8.20;;;;;;;;;;4976204;28;20027;-89
2021/11/05 06:48:46;;;;;;;17.30;8.95;;;;;;;;;;4993420;28;20077;-88
2021/11/05 06:51:12;;;;;;;11.73;8.15;;;;;;;;;;4977540;28;20576;-89
2021/11/05 06:53:38;;;;;;;12.90;8.48;;;;;;;;;;4995025;28;20031;-89
2021/11/05 06:56:05;;;;;;;14.27;9.35;;;;;;;;;;4996931;28;20488;-89
2021/11/05 06:58:35;;;;;;;13.13;9.00;;;;;;;;;;4979786;28;20129;-89
2021/11/05 07:01:01;;;;;;;16.23;9.20;;;;;;;;;;4979778;28;20030;-89
2021/11/05 07:03:27;;;;;;;10.15;6.53;;;;;;;;;;4979208;28;20056;-89
2021/11/05 07:05:53;;;;;;;10.55;7.00;;;;;;;;;;4979603;28;20105;-89
2021/11/05 07:08:19;;;;;;;13.80;8.00;;;;;;;;;;4979522;28;20030;-89
2021/11/05 07:10:47;;;;;;;17.52;8.65;;;;;;;;;;4984210;28;20031;-89
2021/11/05 07:13:13;;;;;;;13.35;6.63;;;;;;;;;;4986639;28;20054;-89
2021/11/05 07:15:39;;;;;;;15.25;7.80;;;;;;;;;;5010324;28;20027;-89
2021/11/05 07:18:05;;;;;;;10.50;6.90;;;;;;;;;;5002984;28;20118;-89
2021/11/05 07:20:33;;;;;;;11.63;6.63;;;;;;;;;;5003368;28;20086;-88
2021/11/05 07:23:00;;;;;;;9.52;6.20;;;;;;;;;;4994841;28;20514;-89
2021/11/05 07:25:26;;;;;;;8.52;5.60;;;;;;;;;;4979599;28;20022;-89
2021/11/05 07:28:01;;;;;;;11.13;5.40;;;;;;;;;;4979331;28;20041;-89
2021/11/05 07:30:31;;;;;;;8.63;5.38;;;;;;;;;;4979008;28;20038;-89
2021/11/05 07:32:57;;;;;;;9.00;5.57;;;;;;;;;;4978128;28;20036;-89
2021/11/05 07:35:23;;;;;;;8.93;5.40;;;;;;;;;;4979098;28;20030;-88
2021/11/05 07:37:50;;;;;;;8.38;5.50;;;;;;;;;;4978325;28;20077;-89
2021/11/05 07:40:16;;;;;;;8.27;5.53;;;;;;;;;;4979077;28;20030;-89
2021/11/05 07:42:43;;;;;;;7.00;4.82;;;;;;;;;;4977446;28;20037;-88
2021/11/05 07:45:10;;;;;;;7.88;5.20;;;;;;;;;;4969840;28;20042;-89
2021/11/05 07:47:36;;;;;;;7.15;5.30;;;;;;;;;;4977745;28;20045;-89
2021/11/05 07:50:06;;;;;;;9.02;5.68;;;;;;;;;;4995859;28;20022;-90
2021/11/05 07:52:33;;;;;;;9.20;5.35;;;;;;;;;;4978862;28;20027;-90
2021/11/05 07:54:59;;;;;;;7.20;5.20;;;;;;;;;;4978812;28;20033;-90
2021/11/05 07:57:25;;;;;;;9.30;5.43;;;;;;;;;;4978849;28;20092;-89
2021/11/05 07:59:52;;;;;;;7.82;5.47;;;;;;;;;;4977597;28;20033;-89
2021/11/05 08:02:18;;;;;;;8.52;6.10;;;;;;;;;;4978835;28;20104;-89
2021/11/05 08:04:44;;;;;;;8.88;5.90;;;;;;;;;;4978561;28;20093;-89
2021/11/05 08:07:11;;;;;;;7.75;5.22;;;;;;;;;;4978816;28;20089;-89
2021/11/05 08:09:39;;;;;;;6.70;5.15;;;;;;;;;;4978875;28;20033;-89
2021/11/05 08:12:06;;;;;;;7.95;5.38;;;;;;;;;;4995322;28;20038;-89
2021/11/05 08:14:32;;;;;;;8.25;5.55;;;;;;;;;;4978751;28;20545;-89
2021/11/05 08:16:58;;;;;;;12.43;5.60;;;;;;;;;;4978534;28;20507;-89
2021/11/05 08:33:56;;;;;;;7.80;5.35;;;;;;;;;;4993954;28;20120;-89
2021/11/05 08:36:56;;;;;;;7.28;4.97;;;;;;;;;;4979423;28;20128;-89
2021/11/05 08:39:22;;;;;;;8.57;4.75;;;;;;;;;;4979328;28;20035;-90
2021/11/05 08:41:48;;;;;;;7.18;4.80;;;;;;;;;;4979284;28;20031;-88
2021/11/05 08:44:16;;;;;;;8.80;5.93;;;;;;;;;;4979200;28;20038;-89
2021/11/05 08:46:43;;;;;;;9.32;5.47;;;;;;;;;;4979449;28;20025;-89
2021/11/05 08:49:12;;;;;;;6.57;4.50;;;;;;;;;;4978817;28;20077;-92
2021/11/05 08:51:41;;;;;;;7.57;4.90;;;;;;;;;;4978004;28;20027;-91
2021/11/05 08:54:07;;;;;;;7.50;5.03;;;;;;;;;;4977962;28;20077;-92
2021/11/05 08:56:33;;;;;;;7.20;4.03;;;;;;;;;;4978339;28;20037;-92
2021/11/05 08:59:01;;;;;;;7.55;4.75;;;;;;;;;;4995542;28;20496;-91
2021/11/05 09:01:27;;;;;;;7.35;4.40;;;;;;;;;;4977594;28;20062;-91
2021/11/05 09:03:53;;;;;;;8.60;3.97;;;;;;;;;;4976224;28;20023;-91
2021/11/05 09:06:20;;;;;;;6.82;4.43;;;;;;;;;;4976075;28;20058;-91
2021/11/05 09:08:48;;;;;;;6.45;3.67;;;;;;;;;;4977904;28;20026;-90
2021/11/05 09:11:14;;;;;;;7.05;4.00;;;;;;;;;;4977011;28;20439;-91
2021/11/05 09:13:40;;;;;;;6.57;4.47;;;;;;;;;;4977479;28;20037;-91
2021/11/05 09:16:06;;;;;;;6.32;4.25;;;;;;;;;;4977397;28;20026;-91
2021/11/05 09:18:33;;;;;;;6.25;4.70;;;;;;;;;;4977795;28;20045;-89
2021/11/05 09:21:00;;;;;;;8.23;4.82;;;;;;;;;;4994657;28;20168;-91
2021/11/05 09:23:27;;;;;;;7.38;4.57;;;;;;;;;;4977667;28;20380;-91
2021/11/05 09:25:54;;;;;;;7.20;4.28;;;;;;;;;;4977499;28;20029;-90
2021/11/05 09:28:20;;;;;;;6.85;4.70;;;;;;;;;;4977822;28;20029;-91
2021/11/05 09:30:46;;;;;;;7.88;4.50;;;;;;;;;;4970671;28;20117;-91
2021/11/05 09:33:12;;;;;;;6.68;4.45;;;;;;;;;;4974621;28;20026;-90
2021/11/05 09:35:38;;;;;;;9.88;5.78;;;;;;;;;;4971692;28;20501;-90
2021/11/05 09:38:05;;;;;;;7.10;5.28;;;;;;;;;;4969223;28;20053;-91
2021/11/05 09:40:31;;;;;;;6.38;4.63;;;;;;;;;;4993196;28;20077;-90
2021/11/05 09:42:58;;;;;;;6.55;4.65;;;;;;;;;;4976464;28;20022;-92
2021/11/05 09:45:25;;;;;;;6.55;4.40;;;;;;;;;;4978302;28;20395;-91
2021/11/05 09:47:52;;;;;;;8.25;5.38;;;;;;;;;;4978435;28;20060;-91
2021/11/05 09:50:20;;;;;;;7.18;4.57;;;;;;;;;;4978832;28;20183;-91
2021/11/05 09:52:46;;;;;;;7.28;4.88;;;;;;;;;;4978393;28;20065;-91
2021/11/05 09:55:14;;;;;;;6.93;4.50;;;;;;;;;;4977726;28;20019;-91
2021/11/05 09:57:40;;;;;;;6.70;4.65;;;;;;;;;;4977033;28;20029;-91
2021/11/05 10:00:09;;;;;;;6.13;3.80;;;;;;;;;;4977297;28;20048;-92
2021/11/05 10:02:35;;;;;;;8.75;4.05;;;;;;;;;;4977756;28;20122;-91
2021/11/05 10:05:03;;;;;;;6.75;4.40;;;;;;;;;;4977944;28;20030;-91
2021/11/05 10:07:30;;;;;;;6.28;4.07;;;;;;;;;;4977317;28;20033;-92
2021/11/05 10:09:57;;;;;;;8.10;4.07;;;;;;;;;;4978047;28;20057;-91
2021/11/05 10:12:27;;;;;;;7.35;4.35;;;;;;;;;;4977418;28;20077;-91
2021/11/05 10:14:55;;;;;;;6.20;4.30;;;;;;;;;;4977067;28;20033;-90
2021/11/05 10:17:21;;;;;;;6.82;3.72;;;;;;;;;;4978135;28;20026;-91
2021/11/05 10:19:58;;;;;;;5.50;3.50;;;;;;;;;;4995403;28;20023;-90
2021/11/05 10:22:46;;;;;;;6.82;3.53;;;;;;;;;;4964705;28;20049;-91
2021/11/05 10:25:37;;;;;;;7.53;4.40;;;;;;;;;;4979592;28;20034;-91
2021/11/05 10:28:12;;;;;;;6.63;3.50;;;;;;;;;;4968413;28;20038;-89
2021/11/05 10:30:40;;;;;;;5.40;3.22;;;;;;;;;;4979932;28;20022;-91
2021/11/05 10:33:09;;;;;;;9.73;4.43;;;;;;;;;;4982768;28;20080;-91
2021/11/05 10:35:40;;;;;;;7.38;3.60;;;;;;;;;;4966444;28;20046;-90
2021/11/05 10:41:07;;;;;;;6.03;3.60;;;;;;;;;;4981280;28;20039;-90
2021/11/05 10:43:43;;;;;;;6.72;3.67;;;;;;;;;;4961631;28;20039;-90
2021/11/05 10:46:12;;;;;;;10.30;5.10;;;;;;;;;;4942070;29;20023;-91
2021/11/05 10:48:40;;;;;;;5.72;3.80;;;;;;;;;;4950845;28;20059;-90
2021/11/05 10:51:07;;;;;;;14.38;4.80;;;;;;;;;;4959065;28;20026;-91
2021/11/05 10:53:40;;;;;;;7.55;3.80;;;;;;;;;;4942065;29;20071;-89
2021/11/05 10:56:08;;;;;;;5.65;3.67;;;;;;;;;;4947918;28;20480;-91
2021/11/05 10:58:38;;;;;;;6.30;3.70;;;;;;;;;;4980655;28;20031;-89
2021/11/05 11:01:07;;;;;;;6.10;3.47;;;;;;;;;;4976969;28;20026;-88
2021/11/05 11:03:43;;;;;;;5.53;2.95;;;;;;;;;;4960131;28;20039;-88
2021/11/05 11:06:11;;;;;;;5.97;3.40;;;;;;;;;;4956727;28;20113;-88
2021/11/05 11:08:39;;;;;;;5.60;2.92;;;;;;;;;;4941459;29;20054;-88
2021/11/05 11:11:24;;;;;;;5.60;3.17;;;;;;;;;;4952553;28;20015;-88
2021/11/05 11:13:52;;;;;;;5.28;2.97;;;;;;;;;;4960516;28;20046;-91
2021/11/05 11:16:20;;;;;;;4.90;2.80;;;;;;;;;;4977751;28;20384;-91
2021/11/05 11:18:48;;;;;;;7.70;2.85;;;;;;;;;;4977868;28;20027;-91
2021/11/05 11:21:14;;;;;;;5.35;3.35;;;;;;;;;;4961700;28;20086;-91
2021/11/05 11:23:40;;;;;;;4.50;2.90;;;;;;;;;;4971979;28;20436;-92
2021/11/05 11:26:07;;;;;;;5.97;3.28;;;;;;;;;;4962081;29;20023;-92
2021/11/05 11:28:34;;;;;;;4.35;2.70;;;;;;;;;;4971426;28;20054;-90
2021/11/05 11:31:00;;;;;;;5.55;3.20;;;;;;;;;;4978180;28;20069;-90
2021/11/05 11:33:26;;;;;;;5.20;3.45;;;;;;;;;;4960282;28;20031;-92
2021/11/05 11:35:52;;;;;;;5.13;3.20;;;;;;;;;;4974012;28;20103;-92
2021/11/05 11:38:20;;;;;;;5.15;3.20;;;;;;;;;;4963759;28;20467;-91
2021/11/05 11:40:47;;;;;;;5.30;3.15;;;;;;;;;;4973592;28;20113;-90
2021/11/05 11:43:14;;;;;;;5.40;2.92;;;;;;;;;;4960881;28;20026;-90
2021/11/05 11:45:44;;;;;;;4.80;2.97;;;;;;;;;;4977911;28;20023;-90
2021/11/05 11:48:11;;;;;;;5.35;2.90;;;;;;;;;;4976821;28;20026;-90
2021/11/05 11:50:38;;;;;;;7.25;2.97;;;;;;;;;;4979182;28;20029;-90
2021/11/05 11:53:06;;;;;;;4.18;2.47;;;;;;;;;;4979277;28;20361;-90
2021/11/05 11:55:33;;;;;;;5.20;2.47;;;;;;;;;;4979682;28;20022;-91
2021/11/05 11:58:19;;;;;;;5.38;2.55;;;;;;;;;;4979558;28;20026;-91
2021/11/05 12:00:46;;;;;;;5.45;2.58;;;;;;;;;;4978582;28;20140;-90
2021/11/05 12:03:14;;;;;;;7.60;2.67;;;;;;;;;;4967342;28;20480;-91
2021/11/05 12:05:42;;;;;;;4.35;2.63;;;;;;;;;;4977319;28;20027;-91
2021/11/05 12:08:15;;;;;;;4.80;2.90;;;;;;;;;;4959702;28;20023;-90
2021/11/05 12:10:43;;;;;;;4.82;2.80;;;;;;;;;;4966846;28;20113;-90
2021/11/05 12:13:41;;;;;;;5.85;2.60;;;;;;;;;;4996579;28;20051;-90
2021/11/05 12:16:15;;;;;;;4.70;3.00;;;;;;;;;;4917196;28;20043;-91
2021/11/05 12:19:08;;;;;;;4.57;2.58;;;;;;;;;;4960351;28;20034;-89
2021/11/05 12:21:38;;;;;;;5.00;2.30;;;;;;;;;;4976374;28;20058;-91
2021/11/05 12:24:17;;;;;;;4.13;2.42;;;;;;;;;;4979835;28;20133;-90
2021/11/05 12:26:48;;;;;;;4.40;2.30;;;;;;;;;;4981570;28;20037;-90
2021/11/05 12:29:32;;;;;;;6.22;2.70;;;;;;;;;;4997395;28;20030;-90
2021/11/05 12:32:19;;;;;;;4.82;2.47;;;;;;;;;;4996300;28;20383;-90
2021/11/05 12:34:46;;;;;;;5.32;2.55;;;;;;;;;;4968327;28;20110;-90
2021/11/05 12:37:14;;;;;;;5.57;2.25;;;;;;;;;;4970266;28;20035;-91
2021/11/05 12:39:41;;;;;;;4.68;2.67;;;;;;;;;;4964730;28;20436;-90
2021/11/05 12:42:07;;;;;;;5.28;2.30;;;;;;;;;;4978622;28;20027;-90
2021/11/05 12:45:00;;;;;;;3.92;2.05;;;;;;;;;;4977777;28;20033;-90
2021/11/05 12:47:52;;;;;;;4.40;2.20;;;;;;;;;;4986277;28;20294;-90
2021/11/05 12:50:28;;;;;;;6.35;2.60;;;;;;;;;;4976720;28;20065;-91
2021/11/05 12:52:56;;;;;;;8.88;3.35;;;;;;;;;;4996923;28;20070;-91
2021/11/05 12:55:23;;;;;;;6.60;3.40;;;;;;;;;;4978093;28;20483;-90
2021/11/05 12:57:53;;;;;;;6.13;3.63;;;;;;;;;;4979204;28;20034;-90
2021/11/05 13:00:23;;;;;;;5.50;3.00;;;;;;;;;;4977601;28;20050;-90
2021/11/05 13:02:55;;;;;;;5.57;2.72;;;;;;;;;;4978124;28;20030;-91
2021/11/05 13:05:22;;;;;;;5.38;2.80;;;;;;;;;;4978364;28;20084;-90
2021/11/05 13:08:05;;;;;;;4.00;2.00;;;;;;;;;;4978528;28;20027;-91
2021/11/05 13:10:32;;;;;;;5.07;3.10;;;;;;;;;;4996107;28;20041;-91
2021/11/05 13:12:59;;;;;;;5.10;2.65;;;;;;;;;;4995441;28;20033;-88
2021/11/05 13:15:26;;;;;;;4.47;2.17;;;;;;;;;;4977253;28;20023;-87
2021/11/05 13:17:53;;;;;;;4.65;2.20;;;;;;;;;;4976989;28;20041;-88
2021/11/05 13:20:24;;;;;;;4.18;2.20;;;;;;;;;;4975648;28;20384;-88
2021/11/05 13:22:52;;;;;;;4.72;2.53;;;;;;;;;;4976829;28;20022;-87
2021/11/05 13:25:18;;;;;;;5.97;2.47;;;;;;;;;;4993941;28;20416;-88
2021/11/05 13:27:45;;;;;;;6.07;2.90;;;;;;;;;;4977174;28;20081;-88
2021/11/05 13:30:12;;;;;;;10.05;2.90;;;;;;;;;;4975996;28;20018;-87
2021/11/05 13:33:01;;;;;;;4.90;2.30;;;;;;;;;;4976973;28;20109;-87
2021/11/05 13:35:27;;;;;;;5.68;2.88;;;;;;;;;;4967963;28;20046;-87
2021/11/05 13:38:04;;;;;;;5.65;2.92;;;;;;;;;;4958565;28;20058;-87
2021/11/05 13:40:31;;;;;;;6.43;3.45;;;;;;;;;;4965207;28;20034;-87
2021/11/05 13:42:57;;;;;;;6.82;4.47;;;;;;;;;;4977406;28;20050;-87
2021/11/05 13:45:26;;;;;;;5.00;3.20;;;;;;;;;;4977151;28;20030;-87
2021/11/05 13:47:52;;;;;;;5.07;2.72;;;;;;;;;;4976829;28;20057;-87
2021/11/05 13:50:19;;;;;;;4.70;2.53;;;;;;;;;;4977428;28;20408;-87
2021/11/05 13:53:11;;;;;;;4.57;2.47;;;;;;;;;;4976268;28;20062;-87
2021/11/05 13:55:39;;;;;;;4.60;2.65;;;;;;;;;;4974094;28;20042;-87
2021/11/05 13:58:06;;;;;;;5.03;2.20;;;;;;;;;;4982566;28;20498;-87
2021/11/05 14:00:37;;;;;;;9.27;3.45;;;;;;;;;;4979496;28;20124;-87
2021/11/05 14:03:03;;;;;;;5.18;2.70;;;;;;;;;;4982062;28;20030;-87
2021/11/05 14:05:29;;;;;;;4.95;2.67;;;;;;;;;;4983869;28;20050;-87
2021/11/05 14:08:08;;;;;;;7.88;3.63;;;;;;;;;;4982778;28;20023;-87
2021/11/05 14:10:52;;;;;;;7.30;3.15;;;;;;;;;;4983369;28;20026;-87
2021/11/05 14:13:19;;;;;;;4.90;3.10;;;;;;;;;;4983802;28;20431;-86
2021/11/05 14:15:45;;;;;;;4.22;2.63;;;;;;;;;;4983092;28;20030;-87
2021/11/05 14:18:15;;;;;;;5.07;2.40;;;;;;;;;;4981496;28;20387;-86
2021/11/05 14:20:45;;;;;;;6.80;3.10;;;;;;;;;;4986822;28;20027;-87
2021/11/05 14:23:29;;;;;;;5.72;2.80;;;;;;;;;;4983828;28;20022;-87
2021/11/05 14:25:55;;;;;;;4.90;2.42;;;;;;;;;;4978706;28;20195;-87
2021/11/05 14:28:21;;;;;;;5.55;2.58;;;;;;;;;;4983840;28;20560;-87
2021/11/05 14:30:56;;;;;;;5.20;2.03;;;;;;;;;;4977894;28;20031;-87
2021/11/05 14:33:25;;;;;;;6.22;2.65;;;;;;;;;;4991445;28;20029;-87
2021/11/05 14:35:51;;;;;;;4.63;2.38;;;;;;;;;;4993526;28;20085;-87
2021/11/05 14:38:17;;;;;;;4.20;2.10;;;;;;;;;;4999588;28;20023;-88
2021/11/05 14:40:44;;;;;;;5.93;2.60;;;;;;;;;;4969312;28;20022;-88
2021/11/05 14:43:17;;;;;;;4.20;1.80;;;;;;;;;;4982751;28;20022;-87
2021/11/05 14:45:46;;;;;;;4.47;2.40;;;;;;;;;;5000291;28;20018;-88
2021/11/05 14:48:17;;;;;;;6.65;2.35;;;;;;;;;;4983190;28;20073;-88
2021/11/05 14:50:45;;;;;;;3.63;1.60;;;;;;;;;;4984610;28;20041;-87
2021/11/05 14:53:23;;;;;;;4.25;1.73;;;;;;;;;;4968768;28;20022;-87
2021/11/05 14:55:49;;;;;;;4.57;1.80;;;;;;;;;;4980794;28;20125;-87
2021/11/05 14:58:26;;;;;;;3.70;1.40;;;;;;;;;;4981822;28;20526;-88
2021/11/05 15:01:02;;;;;;;4.30;1.80;;;;;;;;;;4968302;28;20061;-86
2021/11/05 15:03:28;;;;;;;5.72;2.30;;;;;;;;;;4971240;28;20122;-86
2021/11/05 15:05:56;;;;;;;3.47;1.58;;;;;;;;;;4982147;28;20030;-89
2021/11/05 15:08:23;;;;;;;4.03;1.58;;;;;;;;;;4980475;28;20053;-86
2021/11/05 15:10:49;;;;;;;5.97;2.08;;;;;;;;;;4997842;28;20030;-88
2021/11/05 15:13:16;;;;;;;10.02;4.95;;;;;;;;;;4977963;28;20034;-88
2021/11/05 15:15:44;;;;;;;4.25;1.85;;;;;;;;;;4977883;28;20030;-89
2021/11/05 15:18:11;;;;;;;5.28;3.08;;;;;;;;;;4979658;28;20440;-88
2021/11/05 15:20:38;;;;;;;3.83;2.00;;;;;;;;;;4980207;28;20117;-88
2021/11/05 15:23:04;;;;;;;3.38;1.55;;;;;;;;;;4997295;28;20026;-90
2021/11/05 15:25:30;;;;;;;5.78;2.78;;;;;;;;;;4968211;28;20050;-87
2021/11/05 15:27:57;;;;;;;6.93;2.03;;;;;;;;;;4981261;28;20073;-87
2021/11/05 15:30:25;;;;;;;5.85;2.40;;;;;;;;;;4981130;28;20037;-86
2021/11/05 15:32:52;;;;;;;6.40;3.22;;;;;;;;;;4980188;28;20048;-87
2021/11/05 15:35:18;;;;;;;4.90;2.42;;;;;;;;;;4997434;28;20097;-87
2021/11/05 15:37:45;;;;;;;5.80;2.63;;;;;;;;;;4979743;28;20026;-87
2021/11/05 15:40:13;;;;;;;6.30;2.22;;;;;;;;;;4980412;28;20518;-87
2021/11/05 15:42:41;;;;;;;5.82;3.10;;;;;;;;;;4970571;28;20487;-87
2021/11/05 15:45:07;;;;;;;5.40;2.50;;;;;;;;;;4976516;28;20117;-87
2021/11/05 15:47:34;;;;;;;5.45;2.13;;;;;;;;;;4964388;28;20023;-87
2021/11/05 15:50:05;;;;;;;5.50;2.17;;;;;;;;;;4963418;28;20023;-87
2021/11/05 15:52:31;;;;;;;4.07;1.88;;;;;;;;;;4978494;28;20018;-87
2021/11/05 15:54:57;;;;;;;5.53;2.20;;;;;;;;;;4980755;28;20022;-87
2021/11/05 15:57:26;;;;;;;4.00;1.60;;;;;;;;;;4977378;28;20026;-87
2021/11/05 15:59:53;;;;;;;4.63;2.00;;;;;;;;;;4975738;28;20034;-87
2021/11/05 16:02:19;;;;;;;3.92;1.35;;;;;;;;;;4972514;28;20039;-87
2021/11/05 16:04:45;;;;;;;4.30;1.70;;;;;;;;;;4960131;28;20069;-87
2021/11/05 16:07:11;;;;;;;3.40;1.65;;;;;;;;;;4971218;28;20026;-87
2021/11/05 16:09:37;;;;;;;4.07;1.67;;;;;;;;;;4970874;28;20101;-87
2021/11/05 16:12:04;;;;;;;4.93;1.80;;;;;;;;;;4995490;28;20380;-87
2021/11/05 16:14:30;;;;;;;4.13;1.63;;;;;;;;;;4976492;28;20038;-89
2021/11/05 16:16:56;;;;;;;4.78;2.03;;;;;;;;;;4972368;28;20042;-87
2021/11/05 16:19:22;;;;;;;4.30;1.60;;;;;;;;;;4993083;28;20098;-87
2021/11/05 16:21:48;;;;;;;3.83;1.80;;;;;;;;;;4993343;28;20061;-87
2021/11/05 16:24:15;;;;;;;4.57;1.77;;;;;;;;;;4974914;28;20030;-87
2021/11/05 16:26:46;;;;;;;3.55;1.50;;;;;;;;;;4976550;28;20030;-87
2021/11/05 16:29:14;;;;;;;4.90;1.80;;;;;;;;;;4994734;28;20037;-89
2021/11/05 16:31:40;;;;;;;3.80;1.77;;;;;;;;;;4976026;28;20031;-88
2021/11/05 16:34:06;;;;;;;5.22;2.33;;;;;;;;;;4976177;28;20038;-88
2021/11/05 16:36:33;;;;;;;4.72;2.38;;;;;;;;;;4975444;28;20491;-89
2021/11/05 16:39:00;;;;;;;5.13;2.50;;;;;;;;;;4973265;28;20129;-88
2021/11/05 16:41:26;;;;;;;5.32;2.50;;;;;;;;;;4977487;28;20030;-88
2021/11/05 16:43:52;;;;;;;5.70;3.15;;;;;;;;;;4977125;28;20030;-88
2021/11/05 16:46:19;;;;;;;4.93;2.70;;;;;;;;;;4977021;28;20109;-88
2021/11/05 16:48:48;;;;;;;4.75;2.30;;;;;;;;;;4976164;28;20027;-88
2021/11/05 16:51:15;;;;;;;4.45;2.10;;;;;;;;;;4976621;28;20077;-89
2021/11/05 16:53:42;;;;;;;4.88;3.15;;;;;;;;;;4977148;28;20037;-88
2021/11/05 16:56:11;;;;;;;4.30;2.20;;;;;;;;;;4977816;28;20125;-88
2021/11/05 16:58:37;;;;;;;4.22;2.22;;;;;;;;;;4972300;28;20091;-88
2021/11/05 17:01:03;;;;;;;10.73;9.63;;;;;;;;;;4976476;28;20038;-89
2021/11/05 17:03:30;;;;;;;22.70;20.80;;;;;;;;;;4977462;28;20029;-88
2021/11/05 17:05:56;;;;;;;15.95;14.60;;;;;;;;;;4977871;28;20543;-88
2021/11/05 17:08:22;;;;;;;12.95;11.75;;;;;;;;;;4977146;28;20054;-88
2021/11/05 17:10:48;;;;;;;7.00;4.95;;;;;;;;;;4964651;28;20030;-89
2021/11/05 17:13:15;;;;;;;5.32;3.63;;;;;;;;;;4976680;28;20026;-88
2021/11/05 17:15:41;;;;;;;7.50;3.88;;;;;;;;;;4976954;28;20492;-89
2021/11/05 17:18:07;;;;;;;7.10;2.60;;;;;;;;;;4976788;28;20723;-88
2021/11/05 17:20:33;;;;;;;5.75;2.50;;;;;;;;;;4976489;28;20481;-88
2021/11/05 17:22:59;;;;;;;6.00;4.20;;;;;;;;;;4974461;28;20026;-88
2021/11/05 17:25:25;;;;;;;7.32;4.93;;;;;;;;;;4993138;28;20093;-89
2021/11/05 17:27:51;;;;;;;6.93;4.00;;;;;;;;;;4977037;28;20023;-88
2021/11/05 17:30:18;;;;;;;5.30;3.50;;;;;;;;;;4975722;28;20077;-88
2021/11/05 17:32:45;;;;;;;6.35;4.00;;;;;;;;;;4973257;28;20481;-88
2021/11/05 17:35:11;;;;;;;6.30;4.07;;;;;;;;;;4993083;28;20130;-88
2021/11/05 17:37:38;;;;;;;5.38;3.10;;;;;;;;;;4975269;28;20034;-89
2021/11/05 17:40:06;;;;;;;4.45;2.20;;;;;;;;;;4989572;28;20026;-89
2021/11/05 17:42:32;;;;;;;5.20;3.08;;;;;;;;;;4969179;28;20034;-87
2021/11/05 17:44:58;;;;;;;5.88;2.92;;;;;;;;;;4973029;28;20038;-88
2021/11/05 17:47:24;;;;;;;6.00;2.90;;;;;;;;;;4962747;28;20033;-88
2021/11/05 17:49:50;;;;;;;4.70;2.97;;;;;;;;;;4992739;28;20029;-88
2021/11/05 17:52:16;;;;;;;4.70;2.65;;;;;;;;;;4973727;28;20027;-88
2021/11/05 17:54:42;;;;;;;6.10;4.20;;;;;;;;;;4975387;28;20412;-88
2021/11/05 17:57:08;;;;;;;7.95;6.50;;;;;;;;;;4993688;28;20444;-88
2021/11/05 17:59:34;;;;;;;6.65;4.80;;;;;;;;;;4975610;28;20117;-88
2021/11/05 18:02:00;;;;;;;6.28;4.22;;;;;;;;;;4973673;28;20058;-88
2021/11/05 18:04:31;;;;;;;6.88;4.70;;;;;;;;;;4949920;28;20035;-89
2021/11/05 18:06:58;;;;;;;5.30;3.50;;;;;;;;;;4953205;28;20034;-88
2021/11/05 18:09:24;;;;;;;11.00;6.78;;;;;;;;;;4973657;28;20031;-89
2021/11/05 18:11:51;;;;;;;13.77;9.20;;;;;;;;;;4955785;28;20019;-88
2021/11/05 18:14:18;;;;;;;12.82;9.85;;;;;;;;;;4953338;28;20065;-89
2021/11/05 18:16:45;;;;;;;13.95;10.32;;;;;;;;;;4954879;28;20050;-89
2021/11/05 18:19:14;;;;;;;15.77;11.07;;;;;;;;;;4955689;28;20058;-90
2021/11/05 18:21:40;;;;;;;19.48;15.55;;;;;;;;;;4954178;28;20018;-88
2021/11/05 18:24:06;;;;;;;15.00;9.13;;;;;;;;;;4955109;28;20026;-88
2021/11/05 18:26:33;;;;;;;8.80;5.43;;;;;;;;;;4971676;28;20401;-88
2021/11/05 18:28:59;;;;;;;6.40;4.03;;;;;;;;;;4954533;28;20105;-88
2021/11/05 18:31:25;;;;;;;5.53;3.28;;;;;;;;;;4954067;28;20027;-88
2021/11/05 18:33:52;;;;;;;15.07;7.15;;;;;;;;;;4955111;28;20066;-89
2021/11/05 18:36:18;;;;;;;6.95;4.90;;;;;;;;;;4955314;28;20031;-89
2021/11/05 18:38:45;;;;;;;7.97;4.40;;;;;;;;;;4955915;28;20027;-88
2021/11/05 18:41:12;;;;;;;8.18;4.53;;;;;;;;;;4956959;28;20037;-89
2021/11/05 18:43:40;;;;;;;7.30;3.70;;;;;;;;;;4960680;28;20651;-88
2021/11/05 18:46:06;;;;;;;7.00;3.35;;;;;;;;;;4961103;28;20019;-88
2021/11/05 18:48:33;;;;;;;5.30;3.10;;;;;;;;;;4970801;28;20030;-90
2021/11/05 18:50:59;;;;;;;5.55;3.25;;;;;;;;;;4958183;28;20046;-88
2021/11/05 18:53:25;;;;;;;5.30;2.97;;;;;;;;;;4958462;28;20027;-88
2021/11/05 18:55:51;;;;;;;5.60;3.35;;;;;;;;;;4957510;28;20054;-88
2021/11/05 18:58:17;;;;;;;5.85;3.85;;;;;;;;;;4958123;28;20031;-89
2021/11/05 19:00:45;;;;;;;6.65;4.00;;;;;;;;;;4958945;28;20113;-89
2021/11/05 19:52:54;;;;;;;5.75;3.58;;;;;;;;;;4978097;28;20114;-88
2021/11/05 19:55:25;;;;;;;11.50;7.20;;;;;;;;;;4960624;28;20027;-88
2021/11/05 19:57:54;;;;;;;17.75;13.70;;;;;;;;;;4994031;28;20037;-88
2021/11/05 20:00:23;;;;;;;9.75;7.30;;;;;;;;;;4995468;28;20113;-88
2021/11/05 20:02:49;;;;;;;9.50;6.90;;;;;;;;;;4980134;28;20030;-88
2021/11/05 20:05:16;;;;;;;14.32;12.68;;;;;;;;;;4979815;28;20104;-88
2021/11/05 20:07:42;;;;;;;7.65;5.20;;;;;;;;;;4979023;28;20022;-89
2021/11/05 20:10:09;;;;;;;10.50;7.10;;;;;;;;;;4979305;28;20373;-88